Airfield :
LOGIN :

Register | Disclaimer

   EN    FR    IT 

 










Legend :    VFR   Marginal VFR   IFR   Intensive IFR   Very Intensive IFR
Visi :
Ceiling :
>= 8 km
>= 3000ft
5 to 8 km
1000 to 3000 ft
1500m to 5 km
500 to 1000 ft
800 to 1500m
200 to 500 ft
< 800m
< 200 ft
Symbols :   Thunderstorms  Fog  Heavy snow  Heavy precipitations  Wind > 20 kt
SIGMETs :     Misc.  Thunderstorms  Icing  Turbulence  Mountain Waves  Volcanic Ashes







- Airport Elevation : 844 ft
- IATA code : OSR


LKMT - Ostrava-Mosnov

CURRENT METAR :
  • 171130Z 23013KT CAVOK 11/02 Q1026 NOSIG

EXPIRED METARs :
  • 171100Z 24014KT CAVOK 10/02 Q1027 NOSIG
  • 171030Z 23014KT CAVOK 09/01 Q1027 NOSIG
  • 171000Z 24015KT CAVOK 09/00 Q1027 NOSIG
  • 170930Z 24011KT CAVOK 08/00 Q1027 NOSIG
  • 170900Z 23009KT CAVOK 08/M00 Q1027 NOSIG

TAF TAF LKMT
Valid from the 17 at 12:00 until the 18 at 18:00 UTC


171100Z 1712/1818 24012KT CAVOK
TEMPO 1712/1716 23014G24KT
BECMG 1716/1718 22006KT
TEMPO 1812/1817 23010G22KT
No reported NOTAMs for that airfield.



MET'MAP, your aeronautical weather chart ! - Copyright ORBIFLY December 2007 - Disclaimer

ORBIFLY MET'MAP TEAM :

Programming & Development : Alexandra Zaïnal
Concept & Development : Baudouin d'Aumeries
Co-Development & Prog : Marc-Olivier Méhu
Technical & hardware support : Manuel Goepfert

Contact : metmap@orbifly.com




SOURCES & CREDITS :

   NOAA